sensor_id;sensor_type;location;lat;lon;timestamp;pressure;altitude;pressure_sealevel;temperature;humidity
40171;BME280;37650;52.790;18.268;2022-09-12T00:02:12;-1.00;;;-128.00;-1.00
40171;BME280;37650;52.790;18.268;2022-09-12T00:05:33;-1.00;;;-128.00;-1.00
40171;BME280;37650;52.790;18.268;2022-09-12T00:08:56;-1.00;;;-128.00;-1.00
40171;BME280;37650;52.790;18.268;2022-09-12T00:12:17;-1.00;;;-128.00;-1.00
40171;BME280;37650;52.790;18.268;2022-09-12T00:15:40;-1.00;;;-128.00;-1.00
40171;BME280;37650;52.790;18.268;2022-09-12T00:19:03;-1.00;;;-128.00;-1.00
40171;BME280;37650;52.790;18.268;2022-09-12T00:22:24;-1.00;;;-128.00;-1.00
40171;BME280;37650;52.790;18.268;2022-09-12T00:25:46;-1.00;;;-128.00;-1.00
40171;BME280;37650;52.790;18.268;2022-09-12T00:29:18;-1.00;;;-128.00;-1.00
40171;BME280;37650;52.790;18.268;2022-09-12T00:32:39;-1.00;;;-128.00;-1.00
40171;BME280;37650;52.790;18.268;2022-09-12T00:36:04;-1.00;;;-128.00;-1.00
40171;BME280;37650;52.790;18.268;2022-09-12T00:39:26;-1.00;;;-128.00;-1.00
40171;BME280;37650;52.790;18.268;2022-09-12T00:42:46;-1.00;;;-128.00;-1.00
40171;BME280;37650;52.790;18.268;2022-09-12T00:50:04;-1.00;;;-128.00;-1.00
40171;BME280;37650;52.790;18.268;2022-09-12T00:53:27;-1.00;;;-128.00;-1.00
40171;BME280;37650;52.790;18.268;2022-09-12T00:56:51;-1.00;;;-128.00;-1.00
40171;BME280;37650;52.790;18.268;2022-09-12T01:00:16;-1.00;;;-128.00;-1.00
40171;BME280;37650;52.790;18.268;2022-09-12T01:03:38;-1.00;;;-128.00;-1.00
40171;BME280;37650;52.790;18.268;2022-09-12T01:06:58;-1.00;;;-128.00;-1.00
40171;BME280;37650;52.790;18.268;2022-09-12T01:10:20;-1.00;;;-128.00;-1.00
40171;BME280;37650;52.790;18.268;2022-09-12T01:13:43;-1.00;;;-128.00;-1.00
40171;BME280;37650;52.790;18.268;2022-09-12T01:17:05;-1.00;;;-128.00;-1.00
40171;BME280;37650;52.790;18.268;2022-09-12T01:27:45;-1.00;;;-128.00;-1.00
40171;BME280;37650;52.790;18.268;2022-09-12T01:31:21;-1.00;;;-128.00;-1.00
40171;BME280;37650;52.790;18.268;2022-09-12T01:38:48;-1.00;;;-128.00;-1.00
40171;BME280;37650;52.790;18.268;2022-09-12T01:42:30;-1.00;;;-128.00;-1.00
40171;BME280;37650;52.790;18.268;2022-09-12T01:45:59;-1.00;;;-128.00;-1.00
40171;BME280;37650;52.790;18.268;2022-09-12T01:49:32;-1.00;;;-128.00;-1.00
40171;BME280;37650;52.790;18.268;2022-09-12T01:53:05;-1.00;;;-128.00;-1.00
40171;BME280;37650;52.790;18.268;2022-09-12T01:56:31;-1.00;;;-128.00;-1.00
40171;BME280;37650;52.790;18.268;2022-09-12T01:59:57;-1.00;;;-128.00;-1.00
40171;BME280;37650;52.790;18.268;2022-09-12T02:03:24;-1.00;;;-128.00;-1.00
40171;BME280;37650;52.790;18.268;2022-09-12T02:06:48;-1.00;;;-128.00;-1.00
40171;BME280;37650;52.790;18.268;2022-09-12T02:10:15;-1.00;;;-128.00;-1.00
40171;BME280;37650;52.790;18.268;2022-09-12T02:17:13;-1.00;;;-128.00;-1.00
40171;BME280;37650;52.790;18.268;2022-09-12T02:20:38;-1.00;;;-128.00;-1.00
40171;BME280;37650;52.790;18.268;2022-09-12T02:24:02;-1.00;;;-128.00;-1.00
40171;BME280;37650;52.790;18.268;2022-09-12T02:27:32;-1.00;;;-128.00;-1.00
40171;BME280;37650;52.790;18.268;2022-09-12T02:31:30;-1.00;;;-128.00;-1.00
40171;BME280;37650;52.790;18.268;2022-09-12T02:35:07;-1.00;;;-128.00;-1.00
40171;BME280;37650;52.790;18.268;2022-09-12T02:38:43;-1.00;;;-128.00;-1.00
40171;BME280;37650;52.790;18.268;2022-09-12T02:42:06;-1.00;;;-128.00;-1.00
40171;BME280;37650;52.790;18.268;2022-09-12T02:45:27;-1.00;;;-128.00;-1.00
40171;BME280;37650;52.790;18.268;2022-09-12T02:48:48;-1.00;;;-128.00;-1.00
40171;BME280;37650;52.790;18.268;2022-09-12T02:52:09;-1.00;;;-128.00;-1.00
40171;BME280;37650;52.790;18.268;2022-09-12T02:55:34;-1.00;;;-128.00;-1.00
40171;BME280;37650;52.790;18.268;2022-09-12T02:59:00;-1.00;;;-128.00;-1.00
40171;BME280;37650;52.790;18.268;2022-09-12T03:05:57;-1.00;;;-128.00;-1.00
40171;BME280;37650;52.790;18.268;2022-09-12T03:13:14;-1.00;;;-128.00;-1.00
40171;BME280;37650;52.790;18.268;2022-09-12T03:17:25;-1.00;;;-128.00;-1.00
40171;BME280;37650;52.790;18.268;2022-09-12T03:20:42;-1.00;;;-128.00;-1.00
40171;BME280;37650;52.790;18.268;2022-09-12T03:24:23;-1.00;;;-128.00;-1.00
40171;BME280;37650;52.790;18.268;2022-09-12T03:28:03;-1.00;;;-128.00;-1.00
40171;BME280;37650;52.790;18.268;2022-09-12T03:31:27;-1.00;;;-128.00;-1.00
40171;BME280;37650;52.790;18.268;2022-09-12T03:34:47;-1.00;;;-128.00;-1.00
40171;BME280;37650;52.790;18.268;2022-09-12T03:38:09;-1.00;;;-128.00;-1.00
40171;BME280;37650;52.790;18.268;2022-09-12T03:41:30;-1.00;;;-128.00;-1.00
40171;BME280;37650;52.790;18.268;2022-09-12T03:44:50;-1.00;;;-128.00;-1.00
40171;BME280;37650;52.790;18.268;2022-09-12T03:48:12;-1.00;;;-128.00;-1.00
40171;BME280;37650;52.790;18.268;2022-09-12T03:51:33;-1.00;;;-128.00;-1.00
40171;BME280;37650;52.790;18.268;2022-09-12T03:54:53;-1.00;;;-128.00;-1.00
40171;BME280;37650;52.790;18.268;2022-09-12T03:58:14;-1.00;;;-128.00;-1.00
40171;BME280;37650;52.790;18.268;2022-09-12T04:01:35;-1.00;;;-128.00;-1.00
40171;BME280;37650;52.790;18.268;2022-09-12T04:04:57;-1.00;;;-128.00;-1.00
40171;BME280;37650;52.790;18.268;2022-09-12T04:08:18;-1.00;;;-128.00;-1.00
40171;BME280;37650;52.790;18.268;2022-09-12T04:11:39;-1.00;;;-128.00;-1.00
40171;BME280;37650;52.790;18.268;2022-09-12T04:15:00;-1.00;;;-128.00;-1.00
40171;BME280;37650;52.790;18.268;2022-09-12T04:18:22;-1.00;;;-128.00;-1.00
40171;BME280;37650;52.790;18.268;2022-09-12T04:21:42;-1.00;;;-128.00;-1.00
40171;BME280;37650;52.790;18.268;2022-09-12T04:25:04;-1.00;;;-128.00;-1.00
40171;BME280;37650;52.790;18.268;2022-09-12T04:28:26;-1.00;;;-128.00;-1.00
40171;BME280;37650;52.790;18.268;2022-09-12T04:31:48;-1.00;;;-128.00;-1.00
40171;BME280;37650;52.790;18.268;2022-09-12T04:35:09;-1.00;;;-128.00;-1.00
40171;BME280;37650;52.790;18.268;2022-09-12T04:38:32;-1.00;;;-128.00;-1.00
40171;BME280;37650;52.790;18.268;2022-09-12T04:41:53;-1.00;;;-128.00;-1.00
40171;BME280;37650;52.790;18.268;2022-09-12T04:45:14;-1.00;;;-128.00;-1.00
40171;BME280;37650;52.790;18.268;2022-09-12T04:48:36;-1.00;;;-128.00;-1.00
40171;BME280;37650;52.790;18.268;2022-09-12T04:51:58;-1.00;;;-128.00;-1.00
40171;BME280;37650;52.790;18.268;2022-09-12T04:55:20;-1.00;;;-128.00;-1.00
40171;BME280;37650;52.790;18.268;2022-09-12T04:58:41;-1.00;;;-128.00;-1.00
40171;BME280;37650;52.790;18.268;2022-09-12T05:02:02;-1.00;;;-128.00;-1.00
40171;BME280;37650;52.790;18.268;2022-09-12T05:05:23;-1.00;;;-128.00;-1.00
40171;BME280;37650;52.790;18.268;2022-09-12T05:08:44;-1.00;;;-128.00;-1.00
40171;BME280;37650;52.790;18.268;2022-09-12T05:12:06;-1.00;;;-128.00;-1.00
40171;BME280;37650;52.790;18.268;2022-09-12T05:15:27;-1.00;;;-128.00;-1.00
40171;BME280;37650;52.790;18.268;2022-09-12T05:18:48;-1.00;;;-128.00;-1.00
40171;BME280;37650;52.790;18.268;2022-09-12T05:22:10;-1.00;;;-128.00;-1.00
40171;BME280;37650;52.790;18.268;2022-09-12T05:25:30;-1.00;;;-128.00;-1.00
40171;BME280;37650;52.790;18.268;2022-09-12T05:28:52;-1.00;;;-128.00;-1.00
40171;BME280;37650;52.790;18.268;2022-09-12T05:32:14;-1.00;;;-128.00;-1.00
40171;BME280;37650;52.790;18.268;2022-09-12T05:35:35;-1.00;;;-128.00;-1.00
40171;BME280;37650;52.790;18.268;2022-09-12T05:38:59;-1.00;;;-128.00;-1.00
40171;BME280;37650;52.790;18.268;2022-09-12T05:42:20;-1.00;;;-128.00;-1.00
40171;BME280;37650;52.790;18.268;2022-09-12T05:45:41;-1.00;;;-128.00;-1.00
40171;BME280;37650;52.790;18.268;2022-09-12T05:49:07;-1.00;;;-128.00;-1.00
40171;BME280;37650;52.790;18.268;2022-09-12T05:52:28;-1.00;;;-128.00;-1.00
40171;BME280;37650;52.790;18.268;2022-09-12T05:55:49;-1.00;;;-128.00;-1.00
40171;BME280;37650;52.790;18.268;2022-09-12T05:59:13;-1.00;;;-128.00;-1.00
40171;BME280;37650;52.790;18.268;2022-09-12T06:02:34;-1.00;;;-128.00;-1.00
40171;BME280;37650;52.790;18.268;2022-09-12T06:05:56;-1.00;;;-128.00;-1.00
40171;BME280;37650;52.790;18.268;2022-09-12T06:09:17;-1.00;;;-128.00;-1.00
40171;BME280;37650;52.790;18.268;2022-09-12T06:12:38;-1.00;;;-128.00;-1.00
40171;BME280;37650;52.790;18.268;2022-09-12T06:16:03;-1.00;;;-128.00;-1.00
40171;BME280;37650;52.790;18.268;2022-09-12T06:19:25;-1.00;;;-128.00;-1.00
40171;BME280;37650;52.790;18.268;2022-09-12T06:22:47;-1.00;;;-128.00;-1.00
40171;BME280;37650;52.790;18.268;2022-09-12T06:26:14;-1.00;;;-128.00;-1.00
40171;BME280;37650;52.790;18.268;2022-09-12T06:29:36;-1.00;;;-128.00;-1.00
40171;BME280;37650;52.790;18.268;2022-09-12T06:32:57;-1.00;;;-128.00;-1.00
40171;BME280;37650;52.790;18.268;2022-09-12T06:36:20;-1.00;;;-128.00;-1.00
40171;BME280;37650;52.790;18.268;2022-09-12T06:39:41;-1.00;;;-128.00;-1.00
40171;BME280;37650;52.790;18.268;2022-09-12T06:43:03;-1.00;;;-128.00;-1.00
40171;BME280;37650;52.790;18.268;2022-09-12T06:46:26;-1.00;;;-128.00;-1.00
40171;BME280;37650;52.790;18.268;2022-09-12T06:49:48;-1.00;;;-128.00;-1.00
40171;BME280;37650;52.790;18.268;2022-09-12T06:53:10;-1.00;;;-128.00;-1.00
40171;BME280;37650;52.790;18.268;2022-09-12T06:56:31;-1.00;;;-128.00;-1.00
40171;BME280;37650;52.790;18.268;2022-09-12T06:59:51;-1.00;;;-128.00;-1.00
40171;BME280;37650;52.790;18.268;2022-09-12T07:03:12;-1.00;;;-128.00;-1.00
40171;BME280;37650;52.790;18.268;2022-09-12T07:06:38;-1.00;;;-128.00;-1.00
40171;BME280;37650;52.790;18.268;2022-09-12T07:10:03;-1.00;;;-128.00;-1.00
40171;BME280;37650;52.790;18.268;2022-09-12T07:13:24;-1.00;;;-128.00;-1.00
40171;BME280;37650;52.790;18.268;2022-09-12T07:16:44;-1.00;;;-128.00;-1.00
40171;BME280;37650;52.790;18.268;2022-09-12T07:20:05;-1.00;;;-128.00;-1.00
40171;BME280;37650;52.790;18.268;2022-09-12T07:23:27;-1.00;;;-128.00;-1.00
40171;BME280;37650;52.790;18.268;2022-09-12T07:26:48;-1.00;;;-128.00;-1.00
40171;BME280;37650;52.790;18.268;2022-09-12T07:30:09;-1.00;;;-128.00;-1.00
40171;BME280;37650;52.790;18.268;2022-09-12T07:33:30;-1.00;;;-128.00;-1.00
40171;BME280;37650;52.790;18.268;2022-09-12T07:36:51;-1.00;;;-128.00;-1.00
40171;BME280;37650;52.790;18.268;2022-09-12T07:40:14;-1.00;;;-128.00;-1.00
40171;BME280;37650;52.790;18.268;2022-09-12T07:43:35;-1.00;;;-128.00;-1.00
40171;BME280;37650;52.790;18.268;2022-09-12T07:46:55;-1.00;;;-128.00;-1.00
40171;BME280;37650;52.790;18.268;2022-09-12T07:50:16;-1.00;;;-128.00;-1.00
40171;BME280;37650;52.790;18.268;2022-09-12T07:53:40;-1.00;;;-128.00;-1.00
40171;BME280;37650;52.790;18.268;2022-09-12T07:57:02;-1.00;;;-128.00;-1.00
40171;BME280;37650;52.790;18.268;2022-09-12T08:00:24;-1.00;;;-128.00;-1.00
40171;BME280;37650;52.790;18.268;2022-09-12T08:03:46;-1.00;;;-128.00;-1.00
40171;BME280;37650;52.790;18.268;2022-09-12T08:07:07;-1.00;;;-128.00;-1.00
40171;BME280;37650;52.790;18.268;2022-09-12T08:10:29;-1.00;;;-128.00;-1.00
40171;BME280;37650;52.790;18.268;2022-09-12T08:13:50;-1.00;;;-128.00;-1.00
40171;BME280;37650;52.790;18.268;2022-09-12T08:17:15;-1.00;;;-128.00;-1.00
40171;BME280;37650;52.790;18.268;2022-09-12T08:20:36;-1.00;;;-128.00;-1.00
40171;BME280;37650;52.790;18.268;2022-09-12T08:24:03;-1.00;;;-128.00;-1.00
40171;BME280;37650;52.790;18.268;2022-09-12T08:27:24;-1.00;;;-128.00;-1.00
40171;BME280;37650;52.790;18.268;2022-09-12T08:30:44;-1.00;;;-128.00;-1.00
40171;BME280;37650;52.790;18.268;2022-09-12T08:34:05;-1.00;;;-128.00;-1.00
40171;BME280;37650;52.790;18.268;2022-09-12T08:37:30;-1.00;;;-128.00;-1.00
40171;BME280;37650;52.790;18.268;2022-09-12T08:40:57;-1.00;;;-128.00;-1.00
40171;BME280;37650;52.790;18.268;2022-09-12T08:47:57;-1.00;;;-128.00;-1.00
40171;BME280;37650;52.790;18.268;2022-09-12T08:51:20;-1.00;;;-128.00;-1.00
40171;BME280;37650;52.790;18.268;2022-09-12T08:54:43;-1.00;;;-128.00;-1.00
40171;BME280;37650;52.790;18.268;2022-09-12T08:58:18;-1.00;;;-128.00;-1.00
40171;BME280;37650;52.790;18.268;2022-09-12T09:01:43;-1.00;;;-128.00;-1.00
40171;BME280;37650;52.790;18.268;2022-09-12T09:19:55;-1.00;;;-128.00;-1.00
40171;BME280;37650;52.790;18.268;2022-09-12T09:23:43;-1.00;;;-128.00;-1.00
40171;BME280;37650;52.790;18.268;2022-09-12T09:30:45;-1.00;;;-128.00;-1.00
40171;BME280;37650;52.790;18.268;2022-09-12T09:34:14;-1.00;;;-128.00;-1.00
40171;BME280;37650;52.790;18.268;2022-09-12T09:37:42;-1.00;;;-128.00;-1.00
40171;BME280;37650;52.790;18.268;2022-09-12T09:41:32;-1.00;;;-128.00;-1.00
40171;BME280;37650;52.790;18.268;2022-09-12T09:45:02;-1.00;;;-128.00;-1.00
40171;BME280;37650;52.790;18.268;2022-09-12T09:48:36;-1.00;;;-128.00;-1.00
40171;BME280;37650;52.790;18.268;2022-09-12T09:51:58;-1.00;;;-128.00;-1.00
40171;BME280;37650;52.790;18.268;2022-09-12T09:55:27;-1.00;;;-128.00;-1.00
40171;BME280;37650;52.790;18.268;2022-09-12T09:58:50;-1.00;;;-128.00;-1.00
40171;BME280;37650;52.790;18.268;2022-09-12T10:05:35;-1.00;;;-128.00;-1.00
40171;BME280;37650;52.790;18.268;2022-09-12T10:09:22;-1.00;;;-128.00;-1.00
40171;BME280;37650;52.790;18.268;2022-09-12T10:12:44;-1.00;;;-128.00;-1.00
40171;BME280;37650;52.790;18.268;2022-09-12T10:16:27;-1.00;;;-128.00;-1.00
40171;BME280;37650;52.790;18.268;2022-09-12T10:19:48;-1.00;;;-128.00;-1.00
40171;BME280;37650;52.790;18.268;2022-09-12T10:23:34;-1.00;;;-128.00;-1.00
40171;BME280;37650;52.790;18.268;2022-09-12T10:26:57;-1.00;;;-128.00;-1.00
40171;BME280;37650;52.790;18.268;2022-09-12T10:30:26;-1.00;;;-128.00;-1.00
40171;BME280;37650;52.790;18.268;2022-09-12T10:33:48;-1.00;;;-128.00;-1.00
40171;BME280;37650;52.790;18.268;2022-09-12T10:40:55;-1.00;;;-128.00;-1.00
40171;BME280;37650;52.790;18.268;2022-09-12T10:44:26;-1.00;;;-128.00;-1.00
40171;BME280;37650;52.790;18.268;2022-09-12T10:47:48;-1.00;;;-128.00;-1.00
40171;BME280;37650;52.790;18.268;2022-09-12T10:51:30;-1.00;;;-128.00;-1.00
40171;BME280;37650;52.790;18.268;2022-09-12T10:54:51;-1.00;;;-128.00;-1.00
40171;BME280;37650;52.790;18.268;2022-09-12T11:24:00;-1.00;;;-128.00;-1.00
40171;BME280;37650;52.790;18.268;2022-09-12T11:41:59;-1.00;;;-128.00;-1.00
40171;BME280;37650;52.790;18.268;2022-09-12T11:45:40;-1.00;;;-128.00;-1.00
40171;BME280;37650;52.790;18.268;2022-09-12T11:52:34;-1.00;;;-128.00;-1.00
40171;BME280;37650;52.790;18.268;2022-09-12T11:56:03;-1.00;;;-128.00;-1.00
40171;BME280;37650;52.790;18.268;2022-09-12T11:59:34;-1.00;;;-128.00;-1.00
40171;BME280;37650;52.790;18.268;2022-09-12T12:03:11;-1.00;;;-128.00;-1.00
40171;BME280;37650;52.790;18.268;2022-09-12T12:06:44;-1.00;;;-128.00;-1.00
40171;BME280;37650;52.790;18.268;2022-09-12T12:13:54;-1.00;;;-128.00;-1.00
40171;BME280;37650;52.790;18.268;2022-09-12T12:17:19;-1.00;;;-128.00;-1.00
40171;BME280;37650;52.790;18.268;2022-09-12T12:20:41;-1.00;;;-128.00;-1.00
40171;BME280;37650;52.790;18.268;2022-09-12T12:27:57;-1.00;;;-128.00;-1.00
40171;BME280;37650;52.790;18.268;2022-09-12T12:31:21;-1.00;;;-128.00;-1.00
40171;BME280;37650;52.790;18.268;2022-09-12T12:34:43;-1.00;;;-128.00;-1.00
40171;BME280;37650;52.790;18.268;2022-09-12T12:38:46;-1.00;;;-128.00;-1.00
40171;BME280;37650;52.790;18.268;2022-09-12T12:42:06;-1.00;;;-128.00;-1.00
40171;BME280;37650;52.790;18.268;2022-09-12T12:48:51;-1.00;;;-128.00;-1.00
40171;BME280;37650;52.790;18.268;2022-09-12T12:52:17;-1.00;;;-128.00;-1.00
40171;BME280;37650;52.790;18.268;2022-09-12T13:03:00;-1.00;;;-128.00;-1.00
40171;BME280;37650;52.790;18.268;2022-09-12T13:06:34;-1.00;;;-128.00;-1.00
40171;BME280;37650;52.790;18.268;2022-09-12T13:09:57;-1.00;;;-128.00;-1.00
40171;BME280;37650;52.790;18.268;2022-09-12T13:13:26;-1.00;;;-128.00;-1.00
40171;BME280;37650;52.790;18.268;2022-09-12T13:16:54;-1.00;;;-128.00;-1.00
40171;BME280;37650;52.790;18.268;2022-09-12T13:20:23;-1.00;;;-128.00;-1.00
40171;BME280;37650;52.790;18.268;2022-09-12T13:24:04;-1.00;;;-128.00;-1.00
40171;BME280;37650;52.790;18.268;2022-09-12T13:27:26;-1.00;;;-128.00;-1.00
40171;BME280;37650;52.790;18.268;2022-09-12T13:31:07;-1.00;;;-128.00;-1.00
40171;BME280;37650;52.790;18.268;2022-09-12T13:34:48;-1.00;;;-128.00;-1.00
40171;BME280;37650;52.790;18.268;2022-09-12T13:38:43;-1.00;;;-128.00;-1.00
40171;BME280;37650;52.790;18.268;2022-09-12T13:45:56;-1.00;;;-128.00;-1.00
40171;BME280;37650;52.790;18.268;2022-09-12T13:49:29;-1.00;;;-128.00;-1.00
40171;BME280;37650;52.790;18.268;2022-09-12T13:52:54;-1.00;;;-128.00;-1.00
40171;BME280;37650;52.790;18.268;2022-09-12T13:56:19;-1.00;;;-128.00;-1.00
40171;BME280;37650;52.790;18.268;2022-09-12T13:59:40;-1.00;;;-128.00;-1.00
40171;BME280;37650;52.790;18.268;2022-09-12T14:03:23;-1.00;;;-128.00;-1.00
40171;BME280;37650;52.790;18.268;2022-09-12T14:07:24;-1.00;;;-128.00;-1.00
40171;BME280;37650;52.790;18.268;2022-09-12T14:10:46;-1.00;;;-128.00;-1.00
40171;BME280;37650;52.790;18.268;2022-09-12T14:14:32;-1.00;;;-128.00;-1.00
40171;BME280;37650;52.790;18.268;2022-09-12T14:17:55;-1.00;;;-128.00;-1.00
40171;BME280;37650;52.790;18.268;2022-09-12T14:21:31;-1.00;;;-128.00;-1.00
40171;BME280;37650;52.790;18.268;2022-09-12T14:24:55;-1.00;;;-128.00;-1.00
40171;BME280;37650;52.790;18.268;2022-09-12T14:28:17;-1.00;;;-128.00;-1.00
40171;BME280;37650;52.790;18.268;2022-09-12T14:31:38;-1.00;;;-128.00;-1.00
40171;BME280;37650;52.790;18.268;2022-09-12T14:35:06;-1.00;;;-128.00;-1.00
40171;BME280;37650;52.790;18.268;2022-09-12T14:38:41;-1.00;;;-128.00;-1.00
40171;BME280;37650;52.790;18.268;2022-09-12T14:45:31;-1.00;;;-128.00;-1.00
40171;BME280;37650;52.790;18.268;2022-09-12T14:48:59;-1.00;;;-128.00;-1.00
40171;BME280;37650;52.790;18.268;2022-09-12T14:52:31;-1.00;;;-128.00;-1.00
40171;BME280;37650;52.790;18.268;2022-09-12T14:56:10;-1.00;;;-128.00;-1.00
40171;BME280;37650;52.790;18.268;2022-09-12T15:03:58;-1.00;;;-128.00;-1.00
40171;BME280;37650;52.790;18.268;2022-09-12T15:10:52;-1.00;;;-128.00;-1.00
40171;BME280;37650;52.790;18.268;2022-09-12T15:14:14;-1.00;;;-128.00;-1.00
40171;BME280;37650;52.790;18.268;2022-09-12T15:17:35;-1.00;;;-128.00;-1.00
40171;BME280;37650;52.790;18.268;2022-09-12T15:21:00;-1.00;;;-128.00;-1.00
40171;BME280;37650;52.790;18.268;2022-09-12T15:24:23;-1.00;;;-128.00;-1.00
40171;BME280;37650;52.790;18.268;2022-09-12T15:27:45;-1.00;;;-128.00;-1.00
40171;BME280;37650;52.790;18.268;2022-09-12T15:31:12;-1.00;;;-128.00;-1.00
40171;BME280;37650;52.790;18.268;2022-09-12T15:34:35;-1.00;;;-128.00;-1.00
40171;BME280;37650;52.790;18.268;2022-09-12T15:37:56;-1.00;;;-128.00;-1.00
40171;BME280;37650;52.790;18.268;2022-09-12T15:41:19;-1.00;;;-128.00;-1.00
40171;BME280;37650;52.790;18.268;2022-09-12T15:44:41;-1.00;;;-128.00;-1.00
40171;BME280;37650;52.790;18.268;2022-09-12T15:48:02;-1.00;;;-128.00;-1.00
40171;BME280;37650;52.790;18.268;2022-09-12T15:51:24;-1.00;;;-128.00;-1.00
40171;BME280;37650;52.790;18.268;2022-09-12T15:54:45;-1.00;;;-128.00;-1.00
40171;BME280;37650;52.790;18.268;2022-09-12T15:58:05;-1.00;;;-128.00;-1.00
40171;BME280;37650;52.790;18.268;2022-09-12T16:01:27;-1.00;;;-128.00;-1.00
40171;BME280;37650;52.790;18.268;2022-09-12T16:04:48;-1.00;;;-128.00;-1.00
40171;BME280;37650;52.790;18.268;2022-09-12T16:08:11;-1.00;;;-128.00;-1.00
40171;BME280;37650;52.790;18.268;2022-09-12T16:11:32;-1.00;;;-128.00;-1.00
40171;BME280;37650;52.790;18.268;2022-09-12T16:14:53;-1.00;;;-128.00;-1.00
40171;BME280;37650;52.790;18.268;2022-09-12T16:18:14;-1.00;;;-128.00;-1.00
40171;BME280;37650;52.790;18.268;2022-09-12T16:21:36;-1.00;;;-128.00;-1.00
40171;BME280;37650;52.790;18.268;2022-09-12T16:24:57;-1.00;;;-128.00;-1.00
40171;BME280;37650;52.790;18.268;2022-09-12T16:28:17;-1.00;;;-128.00;-1.00
40171;BME280;37650;52.790;18.268;2022-09-12T16:31:39;-1.00;;;-128.00;-1.00
40171;BME280;37650;52.790;18.268;2022-09-12T16:35:00;-1.00;;;-128.00;-1.00
40171;BME280;37650;52.790;18.268;2022-09-12T16:38:21;-1.00;;;-128.00;-1.00
40171;BME280;37650;52.790;18.268;2022-09-12T16:41:42;-1.00;;;-128.00;-1.00
40171;BME280;37650;52.790;18.268;2022-09-12T16:45:03;-1.00;;;-128.00;-1.00
40171;BME280;37650;52.790;18.268;2022-09-12T16:48:24;-1.00;;;-128.00;-1.00
40171;BME280;37650;52.790;18.268;2022-09-12T16:51:45;-1.00;;;-128.00;-1.00
40171;BME280;37650;52.790;18.268;2022-09-12T16:55:07;-1.00;;;-128.00;-1.00
40171;BME280;37650;52.790;18.268;2022-09-12T16:58:31;-1.00;;;-128.00;-1.00
40171;BME280;37650;52.790;18.268;2022-09-12T17:01:53;-1.00;;;-128.00;-1.00
40171;BME280;37650;52.790;18.268;2022-09-12T17:05:14;-1.00;;;-128.00;-1.00
40171;BME280;37650;52.790;18.268;2022-09-12T17:08:38;-1.00;;;-128.00;-1.00
40171;BME280;37650;52.790;18.268;2022-09-12T17:12:00;-1.00;;;-128.00;-1.00
40171;BME280;37650;52.790;18.268;2022-09-12T17:15:20;-1.00;;;-128.00;-1.00
40171;BME280;37650;52.790;18.268;2022-09-12T17:18:41;-1.00;;;-128.00;-1.00
40171;BME280;37650;52.790;18.268;2022-09-12T17:22:02;-1.00;;;-128.00;-1.00
40171;BME280;37650;52.790;18.268;2022-09-12T17:25:23;-1.00;;;-128.00;-1.00
40171;BME280;37650;52.790;18.268;2022-09-12T17:28:47;-1.00;;;-128.00;-1.00
40171;BME280;37650;52.790;18.268;2022-09-12T17:32:08;-1.00;;;-128.00;-1.00
40171;BME280;37650;52.790;18.268;2022-09-12T17:35:33;-1.00;;;-128.00;-1.00
40171;BME280;37650;52.790;18.268;2022-09-12T17:38:54;-1.00;;;-128.00;-1.00
40171;BME280;37650;52.790;18.268;2022-09-12T17:42:15;-1.00;;;-128.00;-1.00
40171;BME280;37650;52.790;18.268;2022-09-12T17:45:36;-1.00;;;-128.00;-1.00
40171;BME280;37650;52.790;18.268;2022-09-12T17:48:58;-1.00;;;-128.00;-1.00
40171;BME280;37650;52.790;18.268;2022-09-12T17:52:20;-1.00;;;-128.00;-1.00
40171;BME280;37650;52.790;18.268;2022-09-12T17:55:41;-1.00;;;-128.00;-1.00
40171;BME280;37650;52.790;18.268;2022-09-12T17:59:03;-1.00;;;-128.00;-1.00
40171;BME280;37650;52.790;18.268;2022-09-12T18:02:25;-1.00;;;-128.00;-1.00
40171;BME280;37650;52.790;18.268;2022-09-12T18:05:47;-1.00;;;-128.00;-1.00
40171;BME280;37650;52.790;18.268;2022-09-12T18:09:09;-1.00;;;-128.00;-1.00
40171;BME280;37650;52.790;18.268;2022-09-12T18:12:30;-1.00;;;-128.00;-1.00
40171;BME280;37650;52.790;18.268;2022-09-12T18:15:52;-1.00;;;-128.00;-1.00
40171;BME280;37650;52.790;18.268;2022-09-12T18:19:13;-1.00;;;-128.00;-1.00
40171;BME280;37650;52.790;18.268;2022-09-12T18:22:34;-1.00;;;-128.00;-1.00
40171;BME280;37650;52.790;18.268;2022-09-12T18:25:57;-1.00;;;-128.00;-1.00
40171;BME280;37650;52.790;18.268;2022-09-12T18:29:18;-1.00;;;-128.00;-1.00
40171;BME280;37650;52.790;18.268;2022-09-12T18:32:33;100495.90;;;13.33;76.12
40171;BME280;37650;52.790;18.268;2022-09-12T18:35:54;100494.42;;;13.19;76.70
40171;BME280;37650;52.790;18.268;2022-09-12T18:39:15;100493.15;;;13.16;77.32
40171;BME280;37650;52.790;18.268;2022-09-12T18:42:38;100492.75;;;13.14;77.69
40171;BME280;37650;52.790;18.268;2022-09-12T18:46:11;100492.69;;;13.10;78.16
40171;BME280;37650;52.790;18.268;2022-09-12T18:49:32;100494.41;;;13.03;78.56
40171;BME280;37650;52.790;18.268;2022-09-12T18:52:53;100493.67;;;13.00;79.03
40171;BME280;37650;52.790;18.268;2022-09-12T18:56:15;100494.48;;;12.90;79.46
40171;BME280;37650;52.790;18.268;2022-09-12T18:59:36;100495.98;;;12.80;80.08
40171;BME280;37650;52.790;18.268;2022-09-12T19:02:57;100496.38;;;12.71;80.65
40171;BME280;37650;52.790;18.268;2022-09-12T19:06:21;100494.21;;;12.64;81.09
40171;BME280;37650;52.790;18.268;2022-09-12T19:09:42;100493.11;;;12.61;81.27
40171;BME280;37650;52.790;18.268;2022-09-12T19:13:04;100492.23;;;12.57;81.71
40171;BME280;37650;52.790;18.268;2022-09-12T19:16:26;100489.52;;;12.55;82.05
40171;BME280;37650;52.790;18.268;2022-09-12T19:19:48;100488.64;;;12.51;82.47
40171;BME280;37650;52.790;18.268;2022-09-12T19:23:09;100482.45;;;12.48;82.72
40171;BME280;37650;52.790;18.268;2022-09-12T19:26:31;100485.38;;;12.45;82.99
40171;BME280;37650;52.790;18.268;2022-09-12T19:29:52;100485.39;;;12.41;83.04
40171;BME280;37650;52.790;18.268;2022-09-12T19:33:15;100489.04;;;12.38;83.15
40171;BME280;37650;52.790;18.268;2022-09-12T19:36:37;100489.05;;;12.30;83.49
40171;BME280;37650;52.790;18.268;2022-09-12T19:39:58;100486.52;;;12.22;83.98
40171;BME280;37650;52.790;18.268;2022-09-12T19:43:20;100486.97;;;12.20;84.47
40171;BME280;37650;52.790;18.268;2022-09-12T19:46:41;100485.73;;;12.20;84.66
40171;BME280;37650;52.790;18.268;2022-09-12T19:50:02;100488.90;;;12.20;84.92
40171;BME280;37650;52.790;18.268;2022-09-12T19:53:23;100491.07;;;12.14;84.97
40171;BME280;37650;52.790;18.268;2022-09-12T19:56:45;100488.23;;;12.11;85.19
40171;BME280;37650;52.790;18.268;2022-09-12T20:00:06;100486.83;;;12.07;85.35
40171;BME280;37650;52.790;18.268;2022-09-12T20:03:28;100483.42;;;12.00;85.61
40171;BME280;37650;52.790;18.268;2022-09-12T20:06:49;100483.91;;;11.97;86.01
40171;BME280;37650;52.790;18.268;2022-09-12T20:10:11;100483.56;;;11.88;86.05
40171;BME280;37650;52.790;18.268;2022-09-12T20:13:33;100483.34;;;11.85;86.02